createdAt,value
2018-07-17T00:01:28.450Z,10.33
2018-07-17T00:03:55.457Z,11.97
2018-07-17T00:06:22.558Z,9.50
2018-07-17T00:08:49.585Z,9.87
2018-07-17T00:11:16.702Z,8.93
2018-07-17T00:13:43.937Z,9.67
2018-07-17T00:16:11.052Z,11.50
2018-07-17T00:18:38.160Z,10.93
2018-07-17T00:21:05.378Z,9.57
2018-07-17T00:23:32.439Z,9.80
2018-07-17T00:25:59.573Z,10.13
2018-07-17T00:28:26.585Z,9.80
2018-07-17T00:30:53.565Z,10.00
2018-07-17T00:33:20.590Z,9.87
2018-07-17T00:35:48.836Z,10.40
2018-07-17T00:38:15.837Z,11.17
2018-07-17T00:40:42.808Z,9.40
2018-07-17T00:43:09.801Z,9.70
2018-07-17T00:45:36.833Z,9.23
2018-07-17T00:48:03.858Z,9.97
2018-07-17T00:50:30.845Z,8.77
2018-07-17T00:52:57.889Z,10.03
2018-07-17T00:55:24.877Z,12.17
2018-07-17T00:57:52.251Z,9.50
2018-07-17T01:00:19.268Z,11.40
2018-07-17T01:02:51.912Z,10.03
2018-07-17T01:05:24.584Z,10.47
2018-07-17T01:07:57.370Z,11.40
2018-07-17T01:10:30.590Z,10.20
2018-07-17T01:12:57.129Z,9.60
2018-07-17T01:15:28.857Z,10.77
2018-07-17T01:17:55.874Z,11.30
2018-07-17T01:20:22.890Z,11.10
2018-07-17T01:22:49.889Z,10.13
2018-07-17T01:25:16.913Z,11.60
2018-07-17T01:27:44.008Z,12.30
2018-07-17T01:30:11.014Z,10.40
2018-07-17T01:32:38.010Z,10.40
2018-07-17T01:35:05.601Z,11.10
2018-07-17T01:38:03.502Z,11.87
2018-07-17T01:40:30.517Z,10.63
2018-07-17T01:42:57.523Z,10.77
2018-07-17T01:45:24.501Z,11.53
2018-07-17T01:47:51.553Z,10.73
2018-07-17T01:50:18.525Z,11.03
2018-07-17T01:52:45.569Z,12.20
2018-07-17T01:55:12.588Z,12.00
2018-07-17T01:57:39.831Z,10.80
2018-07-17T02:00:06.901Z,10.90
2018-07-17T02:02:33.885Z,11.27
2018-07-17T02:05:00.909Z,12.87
2018-07-17T02:07:27.945Z,11.43
2018-07-17T02:09:54.924Z,10.93
2018-07-17T02:12:21.954Z,11.33
2018-07-17T02:14:48.995Z,11.20
2018-07-17T02:17:15.969Z,11.47
2018-07-17T02:19:42.964Z,11.50
2018-07-17T02:22:09.932Z,11.60
2018-07-17T02:24:36.918Z,11.50
2018-07-17T02:27:04.074Z,11.30
2018-07-17T02:29:31.056Z,12.57
2018-07-17T02:31:58.470Z,12.20
2018-07-17T02:34:25.461Z,11.60
2018-07-17T02:36:52.608Z,12.57
2018-07-17T02:39:19.592Z,13.40
2018-07-17T02:41:46.569Z,11.10
2018-07-17T02:44:13.575Z,13.00
2018-07-17T02:46:40.541Z,13.50
2018-07-17T02:49:07.549Z,12.43
2018-07-17T02:51:34.592Z,11.27
2018-07-17T02:54:01.522Z,12.20
2018-07-17T02:56:28.621Z,11.83
2018-07-17T02:58:55.720Z,11.87
2018-07-17T03:01:22.762Z,12.63
2018-07-17T03:03:49.841Z,13.83
2018-07-17T03:06:16.809Z,13.03
2018-07-17T03:08:43.806Z,12.47
2018-07-17T03:11:10.837Z,13.07
2018-07-17T03:13:37.814Z,12.50
2018-07-17T03:16:04.841Z,12.60
2018-07-17T03:18:31.917Z,11.93
2018-07-17T03:20:59.637Z,13.50
2018-07-17T03:23:26.778Z,11.80
2018-07-17T03:25:53.806Z,11.80
2018-07-17T03:28:20.789Z,13.10
2018-07-17T03:30:47.819Z,12.70
2018-07-17T03:33:14.846Z,14.10
2018-07-17T03:35:41.833Z,17.83
2018-07-17T03:38:08.833Z,14.27
2018-07-17T03:40:36.077Z,16.13
2018-07-17T03:43:03.036Z,13.67
2018-07-17T03:45:30.054Z,13.73
2018-07-17T03:47:57.033Z,12.23
2018-07-17T03:50:24.022Z,12.67
2018-07-17T03:52:51.017Z,14.17
2018-07-17T03:55:18.017Z,13.90
2018-07-17T03:57:45.022Z,12.77
2018-07-17T04:00:11.989Z,12.73
2018-07-17T04:02:39.700Z,12.87
2018-07-17T04:05:06.737Z,14.80
2018-07-17T04:07:33.724Z,14.07
2018-07-17T04:10:01.087Z,12.37
2018-07-17T04:12:28.073Z,13.50
2018-07-17T04:14:55.265Z,13.37
2018-07-17T04:17:22.273Z,13.20
2018-07-17T04:19:49.232Z,14.90
2018-07-17T04:22:16.259Z,12.47
2018-07-17T04:24:43.296Z,12.80
2018-07-17T04:27:10.278Z,13.90
2018-07-17T04:29:37.291Z,13.10
2018-07-17T04:32:04.255Z,13.60
2018-07-17T04:34:31.289Z,12.37
2018-07-17T04:36:58.306Z,12.30
2018-07-17T04:39:25.284Z,12.50
2018-07-17T04:41:52.267Z,11.90
2018-07-17T04:44:19.280Z,14.53
2018-07-17T04:46:46.261Z,15.53
2018-07-17T04:49:13.259Z,11.60
2018-07-17T04:51:40.236Z,12.67
2018-07-17T04:54:07.245Z,13.63
2018-07-17T04:56:34.277Z,13.90
2018-07-17T04:59:01.282Z,13.07
2018-07-17T05:01:28.551Z,15.30
2018-07-17T05:03:55.493Z,13.00
2018-07-17T05:06:22.490Z,12.17
2018-07-17T05:08:49.464Z,13.73
2018-07-17T05:11:16.489Z,13.03
2018-07-17T05:13:43.457Z,12.73
2018-07-17T05:16:10.449Z,15.60
2018-07-17T05:18:37.417Z,13.00
2018-07-17T05:21:04.394Z,12.57
2018-07-17T05:23:31.425Z,12.03
2018-07-17T05:25:58.626Z,13.40
2018-07-17T05:28:25.638Z,13.20
2018-07-17T05:30:53.593Z,13.07
2018-07-17T05:33:20.605Z,17.90
2018-07-17T05:35:47.581Z,15.47
2018-07-17T05:38:14.589Z,17.17
2018-07-17T05:40:41.748Z,17.07
2018-07-17T05:43:08.744Z,20.90
2018-07-17T05:45:35.740Z,19.67
2018-07-17T05:48:02.766Z,17.43
2018-07-17T05:50:29.753Z,22.33
2018-07-17T05:52:56.837Z,18.67
2018-07-17T05:55:24.001Z,23.83
2018-07-17T05:57:51.717Z,28.20
2018-07-17T06:00:19.239Z,20.37
2018-07-17T06:02:46.250Z,24.93
2018-07-17T06:05:13.257Z,24.50
2018-07-17T06:07:40.261Z,18.57
2018-07-17T06:10:07.362Z,21.90
2018-07-17T06:12:34.349Z,21.20
2018-07-17T06:15:01.313Z,16.87
2018-07-17T06:17:28.309Z,30.40
2018-07-17T06:19:55.285Z,25.53
2018-07-17T06:22:22.344Z,26.37
2018-07-17T06:24:49.338Z,23.03
2018-07-17T06:27:16.721Z,21.27
2018-07-17T06:29:43.699Z,20.50
2018-07-17T06:32:10.681Z,17.97
2018-07-17T06:34:37.674Z,15.57
2018-07-17T06:37:04.894Z,21.07
2018-07-17T06:39:31.926Z,18.00
2018-07-17T06:41:58.970Z,15.33
2018-07-17T06:44:25.977Z,14.03
2018-07-17T06:46:52.952Z,16.90
2018-07-17T06:49:20.029Z,19.20
2018-07-17T06:51:47.102Z,27.60
2018-07-17T06:54:14.081Z,17.87
2018-07-17T06:56:41.090Z,15.60
2018-07-17T06:59:08.133Z,18.07
2018-07-17T07:01:35.138Z,17.20
2018-07-17T07:04:02.205Z,17.80
2018-07-17T07:09:27.283Z,25.93
2018-07-17T07:11:54.265Z,27.17
2018-07-17T07:14:21.580Z,19.53
2018-07-17T07:16:48.562Z,17.70
2018-07-17T07:19:15.704Z,17.90
2018-07-17T07:21:42.702Z,22.87
2018-07-17T07:24:09.747Z,23.70
2018-07-17T07:26:36.809Z,19.13
2018-07-17T07:29:03.819Z,21.67
2018-07-17T07:31:30.810Z,16.47
2018-07-17T07:33:57.822Z,23.13
2018-07-17T07:36:24.865Z,26.03
2018-07-17T07:38:51.847Z,24.07
2018-07-17T07:41:18.805Z,20.07
2018-07-17T07:43:45.808Z,17.03
2018-07-17T07:46:12.782Z,18.70
2018-07-17T07:48:39.750Z,14.10
2018-07-17T07:51:07.388Z,18.47
2018-07-17T07:53:34.673Z,12.57
2018-07-17T07:56:01.915Z,11.80
2018-07-17T07:58:28.940Z,13.00
2018-07-17T08:00:55.922Z,9.70
2018-07-17T08:03:23.101Z,9.40
2018-07-17T08:05:50.101Z,10.83
2018-07-17T08:08:17.254Z,10.80
2018-07-17T08:10:44.254Z,13.27
2018-07-17T08:13:11.244Z,8.90
2018-07-17T08:15:38.509Z,14.70
2018-07-17T08:18:05.670Z,10.90
2018-07-17T08:20:32.714Z,10.67
2018-07-17T08:22:59.773Z,9.00
2018-07-17T08:25:27.901Z,10.63
2018-07-17T08:27:54.885Z,14.93
2018-07-17T08:30:22.929Z,10.57
2018-07-17T08:32:49.959Z,12.83
2018-07-17T08:35:16.979Z,13.77
2018-07-17T08:37:43.972Z,10.23
2018-07-17T08:40:10.946Z,8.37
2018-07-17T08:42:37.912Z,8.03
2018-07-17T08:45:05.116Z,8.80
2018-07-17T08:47:32.116Z,8.67
2018-07-17T08:49:59.149Z,7.20
2018-07-17T08:52:26.117Z,8.60
2018-07-17T08:54:53.120Z,9.00
2018-07-17T08:57:20.121Z,7.50
2018-07-17T08:59:47.125Z,6.40
2018-07-17T09:02:14.118Z,7.10
2018-07-17T09:04:41.195Z,6.43
2018-07-17T09:07:08.244Z,6.70
2018-07-17T09:09:35.605Z,4.90
2018-07-17T09:12:02.601Z,6.27
2018-07-17T09:14:29.685Z,7.10
2018-07-17T09:16:57.662Z,4.93
2018-07-17T09:19:24.700Z,5.60
2018-07-17T09:21:53.634Z,5.60
2018-07-17T09:24:20.837Z,6.33
2018-07-17T09:26:47.985Z,5.80
2018-07-17T09:29:15.457Z,5.33
2018-07-17T09:31:42.720Z,5.90
2018-07-17T09:34:09.749Z,5.70
2018-07-17T09:36:36.888Z,4.80
2018-07-17T09:39:06.298Z,5.00
2018-07-17T09:41:33.365Z,4.67
2018-07-17T09:44:00.338Z,4.37
2018-07-17T09:46:27.369Z,5.00
2018-07-17T09:48:55.047Z,5.60
2018-07-17T09:51:22.037Z,4.57
2018-07-17T09:53:49.037Z,5.87
2018-07-17T09:56:16.134Z,5.93
2018-07-17T09:58:43.189Z,5.17
2018-07-17T10:01:15.930Z,5.03
2018-07-17T10:03:42.939Z,4.90
2018-07-17T10:06:09.941Z,4.70
2018-07-17T10:08:36.926Z,5.57
2018-07-17T10:11:03.947Z,5.87
2018-07-17T10:13:31.005Z,5.27
2018-07-17T10:15:58.006Z,4.77
2018-07-17T10:18:25.017Z,5.50
2018-07-17T10:20:52.043Z,4.33
2018-07-17T10:23:19.039Z,5.17
2018-07-17T10:25:46.053Z,4.50
2018-07-17T10:28:13.261Z,5.00
2018-07-17T10:30:40.265Z,4.80
2018-07-17T10:33:07.265Z,5.00
2018-07-17T10:35:34.646Z,5.23
2018-07-17T10:38:01.798Z,4.47
2018-07-17T10:40:28.827Z,7.90
2018-07-17T10:42:55.820Z,4.33
2018-07-17T10:45:22.845Z,4.97
2018-07-17T10:47:49.836Z,5.10
2018-07-17T10:50:16.961Z,4.10
2018-07-17T10:52:43.944Z,5.00
2018-07-17T10:55:10.963Z,5.33
2018-07-17T10:57:38.001Z,4.77
2018-07-17T11:00:04.998Z,4.83
2018-07-17T11:02:32.657Z,4.13
2018-07-17T11:04:59.617Z,5.13
2018-07-17T11:07:27.130Z,5.30
2018-07-17T11:09:54.094Z,4.83
2018-07-17T11:12:21.753Z,4.37
2018-07-17T11:14:48.955Z,5.23
2018-07-17T11:17:15.953Z,5.73
2018-07-17T11:19:42.937Z,4.90
2018-07-17T11:22:10.131Z,4.33
2018-07-17T11:24:37.105Z,5.20
2018-07-17T11:27:04.941Z,5.27
2018-07-17T11:29:31.932Z,4.70
2018-07-17T11:31:59.753Z,4.30
2018-07-17T11:34:26.777Z,4.10
2018-07-17T11:36:53.774Z,4.30
2018-07-17T11:39:20.832Z,4.70
2018-07-17T11:41:47.821Z,3.60
2018-07-17T11:44:14.917Z,4.53
2018-07-17T11:46:42.314Z,4.60
2018-07-17T11:49:09.301Z,6.30
2018-07-17T11:51:36.306Z,3.67
2018-07-17T11:54:03.292Z,4.30
2018-07-17T11:56:30.752Z,4.33
2018-07-17T11:58:58.826Z,4.43
2018-07-17T12:01:25.797Z,4.70
2018-07-17T12:03:52.812Z,4.53
2018-07-17T12:06:19.904Z,3.70
2018-07-17T12:08:46.925Z,7.53
2018-07-17T12:11:13.972Z,4.03
2018-07-17T12:13:40.974Z,4.27
2018-07-17T12:16:07.989Z,4.43
2018-07-17T12:18:35.054Z,4.17
2018-07-17T12:21:02.080Z,3.30
2018-07-17T12:23:29.101Z,3.80
2018-07-17T12:25:56.104Z,4.17
2018-07-17T12:28:23.477Z,3.37
2018-07-17T12:30:50.568Z,3.00
2018-07-17T12:33:17.569Z,3.97
2018-07-17T12:35:44.716Z,3.70
2018-07-17T12:38:11.722Z,4.67
2018-07-17T12:40:38.699Z,4.10
2018-07-17T12:43:06.689Z,4.47
2018-07-17T12:45:33.686Z,4.90
2018-07-17T12:48:00.958Z,3.70
2018-07-17T12:50:28.540Z,4.63
2018-07-17T12:52:55.848Z,7.80
2018-07-17T12:55:22.913Z,4.30
2018-07-17T12:57:50.050Z,4.53
2018-07-17T13:00:16.996Z,4.07
2018-07-17T13:02:44.031Z,3.53
2018-07-17T13:05:11.041Z,3.50
2018-07-17T13:07:38.007Z,3.50
2018-07-17T13:10:05.549Z,3.90
2018-07-17T13:12:32.577Z,5.67
2018-07-17T13:14:59.566Z,4.83
2018-07-17T13:17:26.665Z,4.60
2018-07-17T13:19:53.689Z,3.70
2018-07-17T13:22:20.685Z,3.80
2018-07-17T13:24:47.677Z,3.30
2018-07-17T13:27:14.748Z,3.53
2018-07-17T13:29:41.777Z,3.77
2018-07-17T13:32:09.047Z,3.93
2018-07-17T13:34:36.100Z,4.10
2018-07-17T13:37:03.106Z,4.10
2018-07-17T13:39:30.125Z,4.23
2018-07-17T13:41:57.105Z,4.80
2018-07-17T13:44:24.132Z,3.83
2018-07-17T13:46:51.369Z,3.90
2018-07-17T13:49:18.589Z,3.63
2018-07-17T13:51:45.593Z,4.17
2018-07-17T13:54:12.580Z,4.07
2018-07-17T13:56:39.553Z,4.27
2018-07-17T13:59:06.549Z,4.40
2018-07-17T14:01:33.509Z,4.10
2018-07-17T14:04:00.517Z,4.37
2018-07-17T14:06:27.490Z,7.77
2018-07-17T14:08:54.470Z,3.87
2018-07-17T14:11:21.613Z,3.90
2018-07-17T14:13:48.637Z,3.90
2018-07-17T14:16:15.605Z,4.50
2018-07-17T14:18:42.597Z,4.57
2018-07-17T14:21:09.560Z,4.13
2018-07-17T14:23:36.530Z,4.30
2018-07-17T14:26:03.523Z,3.50
2018-07-17T14:28:30.527Z,4.90
2018-07-17T14:30:57.520Z,4.97
2018-07-17T14:33:24.528Z,4.23
2018-07-17T14:35:51.558Z,5.10
2018-07-17T14:38:18.546Z,4.37
2018-07-17T14:40:45.608Z,4.40
2018-07-17T14:43:19.478Z,4.53
2018-07-17T14:45:46.448Z,4.93
2018-07-17T14:48:13.456Z,4.40
2018-07-17T14:50:40.449Z,8.30
2018-07-17T14:53:07.425Z,4.73
2018-07-17T14:55:34.445Z,4.07
2018-07-17T14:58:01.441Z,4.20
2018-07-17T15:00:28.490Z,4.40
2018-07-17T15:02:55.529Z,5.83
2018-07-17T15:05:22.541Z,4.17
2018-07-17T15:07:49.585Z,5.20
2018-07-17T15:10:16.594Z,4.27
2018-07-17T15:12:43.628Z,4.47
2018-07-17T15:15:10.809Z,4.50
2018-07-17T15:17:37.772Z,4.87
2018-07-17T15:20:04.849Z,4.87
2018-07-17T15:22:31.884Z,3.90
2018-07-17T15:24:59.195Z,4.40
2018-07-17T15:27:26.802Z,4.90
2018-07-17T15:29:53.782Z,4.50
2018-07-17T15:32:20.933Z,4.33
2018-07-17T15:34:48.041Z,7.43
2018-07-17T15:37:15.041Z,5.30
2018-07-17T15:39:42.016Z,4.73
2018-07-17T15:42:09.013Z,4.87
2018-07-17T15:44:36.033Z,8.57
2018-07-17T15:47:03.020Z,4.10
2018-07-17T15:49:30.053Z,4.10
2018-07-17T15:51:57.081Z,5.17
2018-07-17T15:54:24.073Z,4.20
2018-07-17T15:56:51.113Z,4.27
2018-07-17T15:59:19.113Z,4.37
2018-07-17T16:01:46.213Z,4.30
2018-07-17T16:04:13.281Z,4.20
2018-07-17T16:06:40.310Z,4.13
2018-07-17T16:09:07.663Z,3.87
2018-07-17T16:11:34.947Z,3.80
2018-07-17T16:14:02.357Z,4.30
2018-07-17T16:16:28.985Z,4.47
2018-07-17T16:18:56.058Z,4.03
2018-07-17T16:21:23.117Z,6.00
2018-07-17T16:23:50.173Z,4.17
2018-07-17T16:26:17.370Z,4.03
2018-07-17T16:28:44.341Z,3.87
2018-07-17T16:31:11.405Z,3.60
2018-07-17T16:33:38.541Z,4.33
2018-07-17T16:36:05.560Z,3.60
2018-07-17T16:38:32.556Z,4.13
2018-07-17T16:40:59.520Z,3.70
2018-07-17T16:43:26.529Z,4.63
2018-07-17T16:45:53.647Z,5.20
2018-07-17T16:48:20.649Z,3.80
2018-07-17T16:50:47.672Z,3.97
2018-07-17T16:53:14.781Z,3.70
2018-07-17T16:55:41.757Z,3.70
2018-07-17T16:58:08.749Z,4.00
2018-07-17T17:00:35.932Z,4.17
2018-07-17T17:03:02.916Z,4.10
2018-07-17T17:05:29.921Z,3.73
2018-07-17T17:07:56.925Z,4.70
2018-07-17T17:10:23.997Z,3.40
2018-07-17T17:12:51.633Z,3.20
2018-07-17T17:15:18.582Z,3.40
2018-07-17T17:17:46.066Z,3.60
2018-07-17T17:20:13.086Z,3.70
2018-07-17T17:22:40.069Z,4.80
2018-07-17T17:25:07.084Z,3.60
2018-07-17T17:27:34.091Z,3.87
2018-07-17T17:30:01.067Z,3.80
2018-07-17T17:32:28.233Z,4.90
2018-07-17T17:34:55.237Z,2.97
2018-07-17T17:37:22.213Z,2.87
2018-07-17T17:39:49.228Z,3.00
2018-07-17T17:42:16.210Z,3.30
2018-07-17T17:44:43.861Z,3.73
2018-07-17T17:47:10.881Z,3.40
2018-07-17T17:49:37.951Z,3.40
2018-07-17T17:52:04.931Z,3.47
2018-07-17T17:54:31.938Z,2.67
2018-07-17T17:56:58.978Z,3.27
2018-07-17T17:59:26.005Z,3.20
2018-07-17T18:01:52.981Z,2.90
2018-07-17T18:04:19.956Z,4.73
2018-07-17T18:06:47.062Z,3.20
2018-07-17T18:09:14.455Z,2.50
2018-07-17T18:11:41.461Z,2.53
2018-07-17T18:14:08.483Z,2.97
2018-07-17T18:16:35.537Z,2.93
2018-07-17T18:19:02.530Z,3.60
2018-07-17T18:21:29.522Z,5.80
2018-07-17T18:23:56.525Z,2.97
2018-07-17T18:26:23.546Z,3.10
2018-07-17T18:28:50.514Z,3.10
2018-07-17T18:31:17.550Z,3.47
2018-07-17T18:33:44.585Z,3.10
2018-07-17T18:36:11.565Z,3.00
2018-07-17T18:38:38.542Z,2.60
2018-07-17T18:41:05.538Z,3.43
2018-07-17T18:43:32.545Z,2.30
2018-07-17T18:45:59.547Z,2.20
2018-07-17T18:48:26.549Z,3.27
2018-07-17T18:50:53.508Z,3.20
2018-07-17T18:53:20.685Z,2.57
2018-07-17T18:55:47.682Z,2.60
2018-07-17T18:58:14.749Z,3.33
2018-07-17T19:00:41.793Z,4.60
2018-07-17T19:03:08.786Z,3.10
2018-07-17T19:05:36.037Z,3.60
2018-07-17T19:08:03.002Z,3.47
2018-07-17T19:10:29.995Z,6.70
2018-07-17T19:12:56.961Z,4.70
2018-07-17T19:15:23.960Z,7.40
2018-07-17T19:17:51.025Z,10.90
2018-07-17T19:20:18.014Z,8.30
2018-07-17T19:22:45.021Z,8.10
2018-07-17T19:25:12.042Z,14.70
2018-07-17T19:27:39.037Z,8.20
2018-07-17T19:30:06.146Z,8.67
2018-07-17T19:32:33.177Z,11.37
2018-07-17T19:35:00.153Z,10.70
2018-07-17T19:37:27.301Z,10.47
2018-07-17T19:39:54.353Z,11.50
2018-07-17T19:42:21.333Z,11.87
2018-07-17T19:44:48.394Z,10.20
2018-07-17T19:47:15.437Z,9.63
2018-07-17T19:49:42.386Z,10.57
2018-07-17T19:52:09.374Z,11.43
2018-07-17T19:54:36.345Z,10.23
2018-07-17T19:57:03.841Z,12.40
2018-07-17T19:59:30.869Z,13.17
2018-07-17T20:01:57.944Z,7.00
2018-07-17T20:04:25.072Z,10.00
2018-07-17T20:06:52.066Z,10.93
2018-07-17T20:09:19.640Z,7.90
2018-07-17T20:11:46.660Z,6.97
2018-07-17T20:14:13.665Z,9.93
2018-07-17T20:16:40.757Z,9.77
2018-07-17T20:19:08.321Z,8.13
2018-07-17T20:21:35.327Z,6.90
2018-07-17T20:24:02.355Z,13.00
2018-07-17T20:26:29.374Z,8.40
2018-07-17T20:28:56.390Z,7.27
2018-07-17T20:31:23.387Z,7.20
2018-07-17T20:33:50.535Z,8.13
2018-07-17T20:36:18.317Z,8.67
2018-07-17T20:38:45.285Z,10.80
2018-07-17T20:41:12.286Z,7.10
2018-07-17T20:43:39.293Z,9.10
2018-07-17T20:46:06.289Z,7.60
2018-07-17T20:48:33.365Z,8.10
2018-07-17T20:51:00.352Z,8.80
2018-07-17T20:53:27.981Z,9.50
2018-07-17T20:55:55.338Z,10.40
2018-07-17T20:58:22.337Z,9.83
2018-07-17T21:00:49.450Z,8.73
2018-07-17T21:03:16.507Z,9.97
2018-07-17T21:05:43.505Z,7.87
2018-07-17T21:08:10.489Z,9.67
2018-07-17T21:10:37.489Z,7.77
2018-07-17T21:13:04.756Z,10.07
2018-07-17T21:15:31.697Z,8.57
2018-07-17T21:17:58.708Z,6.93
2018-07-17T21:20:25.723Z,9.00
2018-07-17T21:22:52.729Z,8.97
2018-07-17T21:25:19.749Z,10.00
2018-07-17T21:27:46.719Z,8.40
2018-07-17T21:30:13.720Z,11.60
2018-07-17T21:32:40.694Z,9.63
2018-07-17T21:35:07.953Z,9.17
2018-07-17T21:37:34.992Z,8.60
2018-07-17T21:40:02.070Z,11.13
2018-07-17T21:42:29.053Z,8.20
2018-07-17T21:44:56.063Z,15.63
2018-07-17T21:47:23.093Z,11.20
2018-07-17T21:49:50.140Z,7.80
2018-07-17T21:52:17.192Z,7.93
2018-07-17T21:54:44.326Z,14.93
2018-07-17T21:57:11.381Z,13.33
2018-07-17T21:59:38.577Z,9.93
2018-07-17T22:02:05.738Z,8.60
2018-07-17T22:04:33.077Z,11.87
2018-07-17T22:07:00.039Z,8.63
2018-07-17T22:09:27.012Z,11.07
2018-07-17T22:11:54.029Z,9.73
2018-07-17T22:14:21.041Z,10.40
2018-07-17T22:16:48.017Z,8.63
2018-07-17T22:19:14.991Z,8.17
2018-07-17T22:21:42.001Z,10.33
2018-07-17T22:24:09.029Z,11.40
2018-07-17T22:26:36.030Z,9.90
2018-07-17T22:29:03.083Z,7.77
2018-07-17T22:31:30.145Z,7.83
2018-07-17T22:33:57.500Z,10.67
2018-07-17T22:36:24.617Z,9.30
2018-07-17T22:38:51.621Z,13.07
2018-07-17T22:41:18.622Z,8.87
2018-07-17T22:43:45.733Z,9.43
2018-07-17T22:46:12.729Z,12.90
2018-07-17T22:48:39.757Z,11.03
2018-07-17T22:51:06.777Z,9.13
2018-07-17T22:53:33.748Z,12.33
2018-07-17T22:56:00.741Z,9.23
2018-07-17T22:58:27.769Z,11.17
2018-07-17T23:00:54.904Z,11.23
2018-07-17T23:03:21.896Z,11.40
2018-07-17T23:05:48.945Z,10.70
2018-07-17T23:08:16.009Z,14.77
2018-07-17T23:10:43.021Z,11.93
2018-07-17T23:13:10.245Z,10.87
2018-07-17T23:15:37.311Z,11.77
2018-07-17T23:18:04.557Z,12.93
2018-07-17T23:20:31.545Z,14.27
2018-07-17T23:22:59.302Z,13.10
2018-07-17T23:25:28.520Z,12.10
2018-07-17T23:27:56.312Z,12.50
2018-07-17T23:30:23.409Z,10.63
2018-07-17T23:32:50.872Z,12.87
2018-07-17T23:35:18.993Z,14.77
2018-07-17T23:37:46.085Z,13.70
2018-07-17T23:40:13.460Z,12.07
2018-07-17T23:42:40.577Z,12.20
2018-07-17T23:45:07.850Z,11.97
2018-07-17T23:47:35.020Z,13.80
2018-07-17T23:50:02.090Z,10.10
2018-07-17T23:52:29.094Z,11.63
2018-07-17T23:54:56.128Z,13.00
2018-07-17T23:57:23.498Z,13.37
2018-07-17T23:59:50.534Z,10.37
